Terminal Aerodrome Forecast
Issued by NWS Portland, OR

Home | Current Version | Previous Version | Text Only | Print | Product List | Glossary On
Versions: 1 2 3 4 5 6 7 8 9 10 11 12 13 14 15 16 17 18 19 20
000
FTUS46 KPQR 242332
TAFSLE
TAF
KSLE 242332Z 2500/2524 21011G20KT P6SM -SHRA SCT025 BKN045 BKN060
     FM250200 21008KT P6SM -SHRA SCT025 BKN045
     FM250700 18003KT P6SM -SHRA SCT025 BKN045
     FM251600 20009KT P6SM -SHRA SCT025 BKN045=

USA.gov is the U.S. government's official web portal to all federal, state and local government web resources and services.